Time;durP1;ratioP1;P1;durP2;ratioP2;P2;SDS_P1;SDS_P2;PMS_P1;PMS_P2;Temp;Humidity;BMP_temperature;BMP_pressure;BME280_temperature;BME280_humidity;BME280_pressure;Samples;Min_cycle;Max_cycle;Signal;HPM_P1;HPM_P2
2023/05/31 00:01:36;;;;;;;0.10;0.10;;;12.70;99.90;;;;;;5053384;28;20036;-52
2023/05/31 00:04:02;;;;;;;0.20;0.20;;;12.70;99.90;;;;;;5058783;28;20024;-50
2023/05/31 00:06:27;;;;;;;0.20;0.20;;;12.60;99.90;;;;;;5053745;28;20033;-46
2023/05/31 00:08:53;;;;;;;0.10;0.10;;;12.60;99.90;;;;;;5061260;28;20033;-44
2023/05/31 00:11:19;;;;;;;0.20;0.20;;;12.60;99.90;;;;;;5055060;28;20379;-47
2023/05/31 00:13:44;;;;;;;0.20;0.20;;;12.60;99.90;;;;;;5052829;28;20027;-47
2023/05/31 00:16:10;;;;;;;0.10;0.10;;;12.60;99.90;;;;;;5067919;28;20545;-51
2023/05/31 00:18:36;;;;;;;0.10;0.10;;;12.60;99.90;;;;;;5072019;28;20052;-47
2023/05/31 00:21:02;;;;;;;0.20;0.20;;;12.50;99.90;;;;;;5072097;28;20104;-49
2023/05/31 00:23:28;;;;;;;0.10;0.10;;;12.50;99.90;;;;;;5085144;28;20020;-51
2023/05/31 00:25:54;;;;;;;0.10;0.10;;;12.50;99.90;;;;;;5086865;28;20024;-53
2023/05/31 00:28:19;;;;;;;0.10;0.10;;;12.50;99.90;;;;;;5076392;28;20059;-49
2023/05/31 00:30:45;;;;;;;0.10;0.10;;;12.50;99.90;;;;;;5082068;28;20042;-45
2023/05/31 00:33:13;;;;;;;0.10;0.10;;;12.50;99.90;;;;;;5074490;28;20024;-52
2023/05/31 00:35:39;;;;;;;0.10;0.10;;;12.50;99.90;;;;;;5086443;28;20103;-50
2023/05/31 00:38:06;;;;;;;0.13;0.13;;;12.50;99.90;;;;;;5072656;28;20056;-51
2023/05/31 00:40:32;;;;;;;0.10;0.10;;;12.50;99.90;;;;;;5090681;28;20107;-44
2023/05/31 00:42:58;;;;;;;0.10;0.10;;;12.40;99.90;;;;;;5083436;28;20056;-53
2023/05/31 00:45:24;;;;;;;0.13;0.13;;;12.30;99.90;;;;;;5072574;28;20051;-54
2023/05/31 00:47:50;;;;;;;0.20;0.20;;;12.40;99.90;;;;;;5072630;28;20032;-50
2023/05/31 00:50:16;;;;;;;0.10;0.10;;;12.40;99.90;;;;;;5076280;28;20048;-47
2023/05/31 00:52:45;;;;;;;0.10;0.10;;;12.40;99.90;;;;;;5092093;28;20042;-46
2023/05/31 00:55:11;;;;;;;;;;;12.40;99.90;;;;;;5087338;28;20487;-44
2023/05/31 00:57:38;;;;;;;0.10;0.10;;;12.30;99.90;;;;;;5089636;28;20362;-46
2023/05/31 01:00:04;;;;;;;0.20;0.20;;;12.30;99.90;;;;;;5088003;28;20028;-46
2023/05/31 01:02:32;;;;;;;0.20;0.20;;;12.30;99.90;;;;;;5088303;28;20077;-46
2023/05/31 01:04:58;;;;;;;0.10;0.10;;;12.30;99.90;;;;;;5092016;28;20493;-50
2023/05/31 01:07:24;;;;;;;0.20;0.20;;;12.30;99.90;;;;;;5087707;28;20044;-44
2023/05/31 01:09:51;;;;;;;0.10;0.10;;;12.30;99.90;;;;;;5090588;28;20507;-51
2023/05/31 01:12:32;;;;;;;0.10;0.10;;;12.30;99.90;;;;;;5091873;28;20065;-46
2023/05/31 01:15:12;;;;;;;0.10;0.10;;;12.30;99.90;;;;;;5091706;28;20092;-47
2023/05/31 01:17:59;;;;;;;0.10;0.10;;;12.30;99.90;;;;;;5086088;28;20458;-47
2023/05/31 01:20:26;;;;;;;0.10;0.10;;;12.30;99.90;;;;;;5091787;28;20024;-50
2023/05/31 01:23:05;;;;;;;0.10;0.10;;;12.30;99.90;;;;;;5091676;28;20024;-43
2023/05/31 01:25:52;;;;;;;0.20;0.20;;;12.40;99.90;;;;;;5091536;28;20177;-51
2023/05/31 01:28:19;;;;;;;0.10;0.10;;;12.30;99.90;;;;;;5080384;28;20053;-43
2023/05/31 01:30:48;;;;;;;0.10;0.10;;;12.30;99.90;;;;;;5091705;28;20073;-55
2023/05/31 01:33:15;;;;;;;0.10;0.10;;;12.40;99.90;;;;;;5091257;28;20475;-52
2023/05/31 01:35:41;;;;;;;0.10;0.10;;;12.30;99.90;;;;;;5091420;28;20020;-47
2023/05/31 01:38:06;;;;;;;0.10;0.10;;;12.30;99.90;;;;;;5080307;28;20025;-49
2023/05/31 01:40:33;;;;;;;0.10;0.10;;;12.30;99.90;;;;;;5089827;28;20492;-54
2023/05/31 01:42:59;;;;;;;0.10;0.10;;;12.40;99.90;;;;;;5091383;28;20032;-49
2023/05/31 01:45:27;;;;;;;0.20;0.20;;;12.40;99.90;;;;;;5091073;28;20130;-47
2023/05/31 01:47:56;;;;;;;0.20;0.20;;;12.40;99.90;;;;;;5082283;28;20040;-54
2023/05/31 01:50:23;;;;;;;0.10;0.10;;;12.40;99.90;;;;;;5086723;28;20024;-49
2023/05/31 01:52:49;;;;;;;0.20;0.20;;;12.30;99.90;;;;;;5091131;28;20077;-55
2023/05/31 01:55:14;;;;;;;0.20;0.20;;;12.30;99.90;;;;;;5090961;28;20380;-49
2023/05/31 01:57:42;;;;;;;0.10;0.10;;;12.30;99.90;;;;;;5089816;28;20035;-54
2023/05/31 02:00:12;;;;;;;0.10;0.10;;;12.20;99.90;;;;;;5090980;28;20028;-52
2023/05/31 02:02:42;;;;;;;0.10;0.10;;;12.20;99.90;;;;;;5090753;28;20062;-55
2023/05/31 02:05:11;;;;;;;0.20;0.20;;;12.30;99.90;;;;;;5091076;28;20077;-49
2023/05/31 02:07:47;;;;;;;0.10;0.10;;;12.20;99.90;;;;;;5087980;28;20035;-44
2023/05/31 02:10:13;;;;;;;0.10;0.10;;;12.20;99.90;;;;;;5090795;28;20032;-49
2023/05/31 02:12:39;;;;;;;0.10;0.10;;;12.20;99.90;;;;;;5090645;28;20160;-47
2023/05/31 02:15:15;;;;;;;0.15;0.15;;;12.20;99.90;;;;;;5090823;28;20050;-51
2023/05/31 02:17:44;;;;;;;0.20;0.20;;;12.20;99.90;;;;;;5086263;28;20039;-52
2023/05/31 02:20:13;;;;;;;0.13;0.13;;;12.20;99.90;;;;;;5090738;28;20486;-44
2023/05/31 02:22:43;;;;;;;0.15;0.15;;;12.30;99.90;;;;;;5090611;28;20520;-49
2023/05/31 02:25:11;;;;;;;0.20;0.20;;;12.20;99.90;;;;;;5090583;28;20066;-42
2023/05/31 02:27:37;;;;;;;0.10;0.10;;;12.20;99.90;;;;;;5084959;28;20037;-48
2023/05/31 02:30:07;;;;;;;0.10;0.10;;;12.20;99.90;;;;;;5086958;28;20318;-49
2023/05/31 02:32:37;;;;;;;0.10;0.10;;;12.20;99.90;;;;;;5090541;28;20035;-52
2023/05/31 02:35:09;;;;;;;0.10;0.10;;;12.20;99.90;;;;;;5090731;28;20032;-49
2023/05/31 02:37:36;;;;;;;0.10;0.10;;;12.10;99.90;;;;;;5085210;28;20032;-50
2023/05/31 02:40:07;;;;;;;0.10;0.10;;;12.10;99.90;;;;;;5085072;28;20052;-52
2023/05/31 02:42:33;;;;;;;0.10;0.10;;;12.10;99.90;;;;;;5090693;28;20032;-45
2023/05/31 02:44:58;;;;;;;0.10;0.10;;;12.00;99.90;;;;;;5090362;28;20459;-42
2023/05/31 02:47:24;;;;;;;0.10;0.10;;;12.00;99.90;;;;;;5086618;28;20570;-47
2023/05/31 02:49:49;;;;;;;0.13;0.13;;;12.00;99.90;;;;;;5081723;28;20032;-43
2023/05/31 02:52:15;;;;;;;0.10;0.10;;;12.00;99.90;;;;;;5090503;28;20103;-51
2023/05/31 02:54:40;;;;;;;0.20;0.20;;;12.00;99.90;;;;;;5090382;28;20027;-50
2023/05/31 02:57:06;;;;;;;0.10;0.10;;;12.00;99.90;;;;;;5089271;28;20020;-46
2023/05/31 02:59:32;;;;;;;0.20;0.20;;;11.90;99.90;;;;;;5077357;28;20111;-50
2023/05/31 03:01:57;;;;;;;0.20;0.20;;;11.90;99.90;;;;;;5090329;28;20081;-45
2023/05/31 03:04:24;;;;;;;0.10;0.10;;;11.80;99.90;;;;;;5089914;28;20016;-45
2023/05/31 03:06:49;;;;;;;0.10;0.10;;;11.80;99.90;;;;;;5081390;28;20131;-51
2023/05/31 03:09:16;;;;;;;0.10;0.10;;;11.80;99.90;;;;;;5091304;28;20103;-47
2023/05/31 03:11:45;;;;;;;0.10;0.10;;;11.80;99.90;;;;;;5094365;28;20089;-48
2023/05/31 03:14:12;;;;;;;0.20;0.20;;;11.80;99.90;;;;;;5093852;28;20474;-43
2023/05/31 03:16:37;;;;;;;0.10;0.10;;;11.80;99.90;;;;;;5086150;28;20058;-45
2023/05/31 03:19:03;;;;;;;0.20;0.20;;;11.80;99.90;;;;;;5087845;28;20459;-46
2023/05/31 03:21:30;;;;;;;0.20;0.20;;;11.80;99.90;;;;;;5093904;28;20031;-53
2023/05/31 03:23:55;;;;;;;0.20;0.20;;;11.70;99.90;;;;;;5093982;28;20111;-55
2023/05/31 03:26:21;;;;;;;0.10;0.10;;;11.70;99.90;;;;;;5088537;28;20103;-58
2023/05/31 03:28:46;;;;;;;0.10;0.10;;;11.60;99.90;;;;;;5065635;28;20036;-52
2023/05/31 03:31:12;;;;;;;0.10;0.10;;;11.60;99.90;;;;;;5085191;28;20851;-53
2023/05/31 03:33:38;;;;;;;0.10;0.10;;;11.60;99.90;;;;;;5093763;28;20035;-49
2023/05/31 03:36:04;;;;;;;0.10;0.10;;;11.60;99.90;;;;;;5090898;28;20028;-50
2023/05/31 03:38:30;;;;;;;0.10;0.10;;;11.60;99.90;;;;;;5091218;28;20110;-43
2023/05/31 03:40:55;;;;;;;0.13;0.13;;;11.60;99.90;;;;;;5093633;28;20112;-51
2023/05/31 03:43:21;;;;;;;0.10;0.10;;;11.70;99.90;;;;;;5093351;28;20043;-54
2023/05/31 03:45:47;;;;;;;0.10;0.10;;;11.70;99.90;;;;;;5093420;28;20104;-51
2023/05/31 03:48:12;;;;;;;0.10;0.10;;;11.70;99.90;;;;;;5079364;28;20027;-53
2023/05/31 03:50:43;;;;;;;0.20;0.20;;;11.80;99.90;;;;;;5093642;28;20043;-49
2023/05/31 03:53:08;;;;;;;0.20;0.20;;;11.90;99.90;;;;;;5093202;28;20027;-51
2023/05/31 03:55:34;;;;;;;0.10;0.10;;;11.90;99.90;;;;;;5093366;28;20031;-51
2023/05/31 03:58:00;;;;;;;0.20;0.20;;;11.90;99.90;;;;;;5091403;28;20039;-56
2023/05/31 04:00:25;;;;;;;0.10;0.10;;;12.00;99.90;;;;;;5093287;28;20016;-52
2023/05/31 04:02:51;;;;;;;0.10;0.10;;;12.00;99.90;;;;;;5093120;28;20040;-53
2023/05/31 04:05:17;;;;;;;0.10;0.10;;;12.00;99.90;;;;;;5093208;28;20039;-50
2023/05/31 04:07:42;;;;;;;0.10;0.10;;;12.10;99.90;;;;;;5089491;28;19916;-51
2023/05/31 04:10:08;;;;;;;0.20;0.20;;;12.10;99.90;;;;;;5093030;28;20493;-53
2023/05/31 04:12:34;;;;;;;0.10;0.10;;;12.10;99.90;;;;;;5074184;28;20025;-45
2023/05/31 04:15:00;;;;;;;0.10;0.10;;;12.20;99.90;;;;;;5068529;28;20127;-51
2023/05/31 04:17:25;;;;;;;0.20;0.20;;;12.20;99.90;;;;;;5070745;28;20107;-45
2023/05/31 04:19:52;;;;;;;0.10;0.10;;;12.10;99.90;;;;;;5071704;28;20471;-50
2023/05/31 04:22:17;;;;;;;0.10;0.10;;;12.20;99.90;;;;;;5071467;28;20033;-43
2023/05/31 04:24:43;;;;;;;0.20;0.20;;;12.20;99.90;;;;;;5072583;28;20035;-54
2023/05/31 04:27:09;;;;;;;0.10;0.10;;;12.20;99.90;;;;;;5071767;28;20028;-43
2023/05/31 04:29:34;;;;;;;0.20;0.20;;;12.20;99.90;;;;;;5072702;28;20047;-53
2023/05/31 04:32:00;;;;;;;0.20;0.20;;;12.30;99.90;;;;;;5072297;28;20032;-50
2023/05/31 04:34:26;;;;;;;0.10;0.10;;;12.30;99.90;;;;;;5072283;28;20410;-51
2023/05/31 04:36:52;;;;;;;0.20;0.20;;;12.30;99.90;;;;;;5071892;28;20032;-46
2023/05/31 04:39:20;;;;;;;0.10;0.10;;;12.30;99.90;;;;;;5077209;28;20509;-51
2023/05/31 04:41:45;;;;;;;0.20;0.20;;;12.30;99.90;;;;;;5092450;28;20039;-53
2023/05/31 04:44:11;;;;;;;0.10;0.10;;;12.30;99.90;;;;;;5090898;28;20036;-52
2023/05/31 04:46:40;;;;;;;0.10;0.10;;;12.40;99.90;;;;;;5089835;28;20123;-52
2023/05/31 04:49:06;;;;;;;0.10;0.10;;;12.40;99.90;;;;;;5087955;28;20433;-50
2023/05/31 04:51:32;;;;;;;0.10;0.10;;;12.50;99.90;;;;;;5092161;28;20028;-44
2023/05/31 04:53:58;;;;;;;0.10;0.10;;;12.50;99.90;;;;;;5092181;28;20024;-44
2023/05/31 04:56:25;;;;;;;0.10;0.10;;;12.50;99.90;;;;;;5091663;28;20432;-49
2023/05/31 04:58:51;;;;;;;0.15;0.15;;;12.50;99.90;;;;;;5083622;28;20067;-56
2023/05/31 05:01:17;;;;;;;0.10;0.10;;;12.60;99.90;;;;;;5091854;28;20054;-50
2023/05/31 05:03:44;;;;;;;0.10;0.10;;;12.60;99.90;;;;;;5092066;28;20016;-53
2023/05/31 05:06:15;;;;;;;0.20;0.20;;;12.60;99.90;;;;;;5091742;28;20139;-54
2023/05/31 05:08:47;;;;;;;0.10;0.10;;;12.70;99.90;;;;;;5081707;28;20020;-50
2023/05/31 05:11:13;;;;;;;0.10;0.10;;;12.70;99.90;;;;;;5091764;28;20032;-53
2023/05/31 05:13:38;;;;;;;0.20;0.20;;;12.80;99.90;;;;;;5091787;28;20030;-52
2023/05/31 05:16:04;;;;;;;0.20;0.20;;;12.80;99.90;;;;;;5089757;28;20023;-50
2023/05/31 05:18:31;;;;;;;0.10;0.10;;;12.80;99.90;;;;;;5091466;28;20035;-50
2023/05/31 05:20:57;;;;;;;0.20;0.20;;;12.90;99.90;;;;;;5090800;28;20526;-50
2023/05/31 05:23:23;;;;;;;0.10;0.10;;;13.00;99.90;;;;;;5089434;28;20037;-56
2023/05/31 05:25:49;;;;;;;0.20;0.20;;;13.00;99.90;;;;;;5091594;28;20295;-57
2023/05/31 05:28:15;;;;;;;0.10;0.10;;;13.10;99.90;;;;;;5078772;28;20471;-58
2023/05/31 05:30:41;;;;;;;0.20;0.20;;;13.20;99.90;;;;;;5074618;28;20032;-53
2023/05/31 05:33:06;;;;;;;0.20;0.20;;;13.30;99.90;;;;;;5084976;28;20023;-45
2023/05/31 05:35:33;;;;;;;0.10;0.10;;;13.30;99.90;;;;;;5091321;28;20043;-57
2023/05/31 05:37:59;;;;;;;0.10;0.10;;;13.40;99.90;;;;;;5085760;28;20020;-44
2023/05/31 05:40:25;;;;;;;0.10;0.10;;;13.40;99.90;;;;;;5090857;28;20024;-52
2023/05/31 05:42:53;;;;;;;0.10;0.10;;;13.50;99.90;;;;;;5082855;28;20024;-45
2023/05/31 05:45:18;;;;;;;0.10;0.10;;;13.60;99.90;;;;;;5091297;28;20067;-43
2023/05/31 05:47:45;;;;;;;0.20;0.20;;;13.80;99.90;;;;;;5091161;28;20068;-45
2023/05/31 05:50:11;;;;;;;0.20;0.20;;;14.00;99.90;;;;;;5091189;28;20032;-44
2023/05/31 05:52:37;;;;;;;0.10;0.10;;;14.30;99.90;;;;;;5081724;28;20032;-43
2023/05/31 05:55:03;;;;;;;0.10;0.10;;;14.70;99.90;;;;;;5090893;28;20036;-43
2023/05/31 05:57:29;;;;;;;0.10;0.10;;;15.40;99.90;;;;;;5090863;28;20028;-46
2023/05/31 05:59:56;;;;;;;0.10;0.10;;;15.90;99.90;;;;;;5091277;28;20021;-44
2023/05/31 06:02:21;;;;;;;0.10;0.10;;;16.30;99.90;;;;;;5081561;28;20021;-45
2023/05/31 06:04:47;;;;;;;0.10;0.10;;;16.70;99.90;;;;;;5089694;28;20016;-54
2023/05/31 06:07:12;;;;;;;0.10;0.10;;;17.20;99.90;;;;;;5090904;28;20028;-45
2023/05/31 06:09:38;;;;;;;0.10;0.10;;;17.90;99.90;;;;;;5090901;28;20077;-44
2023/05/31 06:12:04;;;;;;;0.10;0.10;;;18.40;99.90;;;;;;5084331;28;20020;-43
2023/05/31 06:14:30;;;;;;;0.10;0.10;;;18.90;99.90;;;;;;5084590;28;20055;-50
2023/05/31 06:16:55;;;;;;;0.10;0.10;;;18.90;99.90;;;;;;5078890;28;20024;-48
2023/05/31 06:19:21;;;;;;;0.00;0.00;;;19.40;99.90;;;;;;5090724;28;20032;-44
2023/05/31 06:21:48;;;;;;;0.10;0.10;;;19.80;99.90;;;;;;5074880;28;20093;-46
2023/05/31 06:24:14;;;;;;;0.00;0.00;;;20.00;99.90;;;;;;5081621;28;20462;-46
2023/05/31 06:26:40;;;;;;;0.00;0.00;;;20.20;99.90;;;;;;5090571;28;20062;-47
2023/05/31 06:29:05;;;;;;;0.10;0.10;;;20.20;99.90;;;;;;5090749;28;20032;-46
2023/05/31 06:31:31;;;;;;;0.10;0.10;;;19.90;99.90;;;;;;5089615;28;20034;-49
2023/05/31 06:33:57;;;;;;;0.10;0.10;;;19.90;99.90;;;;;;5090711;28;20097;-50
2023/05/31 06:36:22;;;;;;;0.10;0.10;;;19.80;99.90;;;;;;5090477;28;20031;-49
2023/05/31 06:38:48;;;;;;;0.13;0.13;;;19.30;99.90;;;;;;5090336;28;20024;-55
2023/05/31 06:41:14;;;;;;;0.10;0.10;;;18.70;99.90;;;;;;5090532;28;20421;-54
2023/05/31 06:43:39;;;;;;;0.10;0.10;;;17.90;99.90;;;;;;5084836;28;20072;-50
2023/05/31 06:46:10;;;;;;;0.10;0.10;;;17.50;99.90;;;;;;5093375;28;20026;-50
2023/05/31 06:48:36;;;;;;;0.10;0.10;;;17.30;99.90;;;;;;5094687;28;20398;-50
2023/05/31 06:51:01;;;;;;;0.10;0.10;;;17.20;99.90;;;;;;5094451;28;20474;-46
2023/05/31 06:53:27;;;;;;;0.10;0.10;;;17.20;99.90;;;;;;5086408;28;20035;-48
2023/05/31 06:55:52;;;;;;;0.10;0.10;;;17.70;99.90;;;;;;5094435;28;20130;-44
2023/05/31 06:58:18;;;;;;;0.10;0.10;;;18.20;99.90;;;;;;5084192;28;20023;-52
2023/05/31 07:00:44;;;;;;;0.10;0.10;;;18.10;99.90;;;;;;5071991;28;20025;-52
2023/05/31 07:03:09;;;;;;;0.10;0.10;;;17.70;99.90;;;;;;5072454;28;20024;-48
2023/05/31 07:05:35;;;;;;;0.10;0.10;;;17.10;99.90;;;;;;5071046;28;20480;-56
2023/05/31 07:08:01;;;;;;;0.10;0.10;;;16.90;99.90;;;;;;5070614;28;20413;-48
2023/05/31 07:10:29;;;;;;;0.10;0.10;;;16.70;99.90;;;;;;5072853;28;20428;-52
2023/05/31 07:12:55;;;;;;;0.10;0.10;;;16.10;99.90;;;;;;5072433;28;20032;-48
2023/05/31 07:15:21;;;;;;;0.10;0.10;;;15.90;99.90;;;;;;5072841;28;20162;-48
2023/05/31 07:17:46;;;;;;;0.10;0.10;;;16.00;99.90;;;;;;5068782;28;20036;-53
2023/05/31 07:20:12;;;;;;;0.10;0.10;;;16.00;99.90;;;;;;5072593;28;20031;-45
2023/05/31 07:22:37;;;;;;;0.10;0.10;;;15.90;99.90;;;;;;5072759;28;20162;-46
2023/05/31 07:25:05;;;;;;;0.10;0.10;;;15.70;99.90;;;;;;5071887;28;20498;-45
2023/05/31 07:27:31;;;;;;;0.10;0.10;;;15.80;99.90;;;;;;5072729;28;20041;-50
2023/05/31 07:29:56;;;;;;;0.10;0.10;;;15.90;99.90;;;;;;5068788;28;20028;-50
2023/05/31 07:32:22;;;;;;;0.10;0.10;;;15.80;99.90;;;;;;5070729;28;20032;-51
2023/05/31 07:34:48;;;;;;;0.10;0.10;;;15.50;99.90;;;;;;5072482;28;20032;-43
2023/05/31 07:37:13;;;;;;;0.10;0.10;;;15.60;99.90;;;;;;5063997;28;20031;-47
2023/05/31 07:39:39;;;;;;;0.10;0.10;;;15.60;99.90;;;;;;5081421;28;20016;-43
2023/05/31 07:42:05;;;;;;;0.10;0.10;;;15.60;99.90;;;;;;5086296;28;20032;-52
2023/05/31 07:44:31;;;;;;;0.10;0.10;;;15.80;99.90;;;;;;5057772;28;20446;-47
2023/05/31 07:46:56;;;;;;;0.10;0.10;;;15.80;99.90;;;;;;5071874;28;20440;-50
2023/05/31 07:49:22;;;;;;;0.43;0.22;;;16.10;99.90;;;;;;5066022;28;20058;-57
2023/05/31 07:51:47;;;;;;;0.10;0.10;;;16.70;99.90;;;;;;5071643;28;20036;-52
2023/05/31 07:54:13;;;;;;;0.10;0.10;;;17.10;99.90;;;;;;5070986;28;20103;-50
2023/05/31 07:56:40;;;;;;;0.17;0.17;;;17.40;99.90;;;;;;5070218;28;20038;-51
2023/05/31 07:59:06;;;;;;;0.10;0.10;;;17.70;99.90;;;;;;5069035;28;20096;-48
2023/05/31 08:01:33;;;;;;;0.10;0.10;;;18.50;99.90;;;;;;5068455;28;20039;-49
2023/05/31 08:04:06;;;;;;;0.10;0.10;;;19.00;99.90;;;;;;5071149;28;20051;-51
2023/05/31 08:06:32;;;;;;;0.10;0.10;;;19.20;99.90;;;;;;5067484;28;20079;-50
2023/05/31 08:08:58;;;;;;;0.10;0.10;;;18.70;99.90;;;;;;5061131;28;20036;-50
2023/05/31 08:11:25;;;;;;;0.10;0.10;;;18.60;99.90;;;;;;5069048;28;20376;-53
2023/05/31 08:13:51;;;;;;;0.10;0.10;;;18.40;99.90;;;;;;5070181;28;20156;-46
2023/05/31 08:16:17;;;;;;;0.20;0.20;;;18.20;99.90;;;;;;5067059;28;20548;-49
2023/05/31 08:18:43;;;;;;;0.10;0.10;;;18.40;99.90;;;;;;5071426;28;20035;-49
2023/05/31 08:21:09;;;;;;;0.10;0.10;;;18.70;99.90;;;;;;5075973;28;20028;-51
2023/05/31 08:23:35;;;;;;;0.10;0.10;;;19.10;99.90;;;;;;5080827;28;20039;-47
2023/05/31 08:26:00;;;;;;;0.10;0.10;;;19.10;99.90;;;;;;5089625;28;20047;-47
2023/05/31 08:28:26;;;;;;;0.20;0.20;;;19.50;99.90;;;;;;5075081;28;20031;-46
2023/05/31 08:30:52;;;;;;;0.00;0.00;;;19.30;99.90;;;;;;5072012;28;20029;-54
2023/05/31 08:33:18;;;;;;;0.10;0.10;;;20.10;99.90;;;;;;5070371;28;20045;-49
2023/05/31 08:35:43;;;;;;;0.10;0.10;;;20.50;99.90;;;;;;5069899;28;20112;-52
2023/05/31 08:38:09;;;;;;;0.10;0.10;;;21.30;99.90;;;;;;5069629;28;20104;-52
2023/05/31 08:40:35;;;;;;;0.10;0.10;;;21.30;99.90;;;;;;5086013;28;20028;-55
2023/05/31 08:43:10;;;;;;;0.20;0.20;;;21.40;99.90;;;;;;5090324;28;20131;-46
2023/05/31 08:45:36;;;;;;;0.10;0.10;;;21.30;99.90;;;;;;5082470;28;20081;-53
2023/05/31 08:48:07;;;;;;;0.10;0.10;;;20.50;99.90;;;;;;5091323;28;20032;-53
2023/05/31 08:50:35;;;;;;;0.10;0.10;;;19.60;99.90;;;;;;5092177;28;20059;-47
2023/05/31 08:53:02;;;;;;;0.10;0.10;;;19.00;99.90;;;;;;5092081;28;20390;-47
2023/05/31 08:55:29;;;;;;;0.10;0.10;;;18.40;99.90;;;;;;5086154;28;20096;-45
2023/05/31 08:57:56;;;;;;;0.10;0.10;;;18.50;99.90;;;;;;5090349;28;20024;-50
2023/05/31 09:00:22;;;;;;;0.10;0.10;;;18.40;99.90;;;;;;5091917;28;20425;-50
2023/05/31 09:02:50;;;;;;;0.10;0.10;;;18.50;99.90;;;;;;5091847;28;20077;-46
2023/05/31 09:05:16;;;;;;;0.20;0.20;;;18.70;99.90;;;;;;5087247;28;20534;-49
2023/05/31 09:07:42;;;;;;;0.10;0.10;;;18.40;99.90;;;;;;5058247;28;20041;-45
2023/05/31 09:10:08;;;;;;;0.10;0.10;;;18.30;99.90;;;;;;5064404;28;20020;-54
2023/05/31 09:12:37;;;;;;;0.10;0.10;;;18.50;99.90;;;;;;5087052;28;20029;-51
2023/05/31 09:15:05;;;;;;;0.10;0.10;;;18.70;99.90;;;;;;5061845;28;20391;-48
2023/05/31 09:17:32;;;;;;;0.20;0.15;;;19.20;99.90;;;;;;5071064;28;20040;-52
2023/05/31 09:20:00;;;;;;;0.10;0.10;;;18.90;99.90;;;;;;5071526;28;20052;-54
2023/05/31 09:22:26;;;;;;;0.10;0.10;;;18.70;99.90;;;;;;5071145;28;20165;-40
2023/05/31 09:25:00;;;;;;;0.20;0.20;;;18.80;99.90;;;;;;5065982;28;20106;-47
2023/05/31 09:27:33;;;;;;;0.10;0.10;;;18.80;99.90;;;;;;5066724;28;20036;-47
2023/05/31 09:30:03;;;;;;;0.10;0.10;;;18.90;99.90;;;;;;5070958;28;20035;-45
2023/05/31 09:32:29;;;;;;;0.10;0.10;;;19.40;99.90;;;;;;5069707;28;20029;-52
2023/05/31 09:35:10;;;;;;;0.10;0.10;;;19.90;99.90;;;;;;5070685;28;20019;-40
2023/05/31 09:37:45;;;;;;;0.10;0.10;;;20.50;99.90;;;;;;5070598;28;20051;-47
2023/05/31 09:40:21;;;;;;;0.10;0.10;;;21.00;99.90;;;;;;5083234;28;20028;-40
2023/05/31 09:42:51;;;;;;;0.13;0.13;;;21.30;99.90;;;;;;5089627;28;20036;-42
2023/05/31 09:45:17;;;;;;;0.10;0.10;;;21.70;99.90;;;;;;5083340;28;20048;-51
2023/05/31 09:47:43;;;;;;;0.10;0.10;;;22.30;99.90;;;;;;5091100;28;20068;-48
2023/05/31 09:50:10;;;;;;;0.10;0.10;;;22.60;98.90;;;;;;5090643;28;20027;-43
2023/05/31 09:52:40;;;;;;;0.10;0.10;;;22.60;99.60;;;;;;5090876;28;20077;-45
2023/05/31 09:55:07;;;;;;;0.00;0.00;;;21.90;97.60;;;;;;5078576;28;20032;-47
2023/05/31 09:57:40;;;;;;;0.30;0.30;;;21.50;98.50;;;;;;5068152;28;20108;-46
2023/05/31 10:00:17;;;;;;;0.10;0.10;;;22.00;98.70;;;;;;5067913;28;20490;-40
2023/05/31 10:02:51;;;;;;;0.10;0.10;;;22.00;96.90;;;;;;5067868;28;20031;-41
2023/05/31 10:05:17;;;;;;;0.10;0.10;;;21.70;96.80;;;;;;5066456;28;20650;-41
2023/05/31 10:07:48;;;;;;;0.10;0.10;;;21.30;98.60;;;;;;5068315;28;20135;-49
2023/05/31 10:10:17;;;;;;;0.00;0.00;;;21.10;98.80;;;;;;5068114;28;20703;-45
2023/05/31 10:13:01;;;;;;;0.20;0.20;;;21.10;98.20;;;;;;5068610;28;20514;-42
2023/05/31 10:15:27;;;;;;;0.10;0.10;;;21.00;99.50;;;;;;5064679;28;20021;-44
2023/05/31 10:18:02;;;;;;;0.10;0.10;;;21.30;98.90;;;;;;5068454;28;20021;-48
2023/05/31 10:20:41;;;;;;;0.10;0.10;;;21.20;99.10;;;;;;5067505;28;20052;-41
2023/05/31 10:23:14;;;;;;;0.10;0.10;;;21.30;98.90;;;;;;5066700;28;20032;-45
2023/05/31 10:26:07;;;;;;;0.10;0.10;;;21.40;97.40;;;;;;5068497;28;20506;-41
2023/05/31 10:28:42;;;;;;;0.10;0.10;;;21.20;98.00;;;;;;5039838;28;20044;-41
2023/05/31 10:31:11;;;;;;;0.03;0.03;;;21.60;97.60;;;;;;5069702;28;20502;-54
2023/05/31 10:33:44;;;;;;;0.10;0.10;;;21.20;98.60;;;;;;5075130;28;20051;-52
2023/05/31 10:36:10;;;;;;;0.10;0.10;;;21.20;97.10;;;;;;5069513;28;20501;-49
2023/05/31 10:38:44;;;;;;;0.10;0.10;;;21.20;96.60;;;;;;5069565;28;20029;-49
2023/05/31 10:41:16;;;;;;;0.10;0.10;;;21.30;97.70;;;;;;5069387;28;20021;-48
2023/05/31 10:43:47;;;;;;;0.10;0.10;;;21.40;97.60;;;;;;5071608;28;20045;-42
2023/05/31 10:46:22;;;;;;;0.10;0.10;;;21.20;96.40;;;;;;5065407;28;20115;-45
2023/05/31 10:48:55;;;;;;;0.10;0.10;;;21.10;97.10;;;;;;5069391;28;20025;-41
2023/05/31 10:51:41;;;;;;;0.10;0.10;;;21.00;97.00;;;;;;5065791;28;20056;-46
2023/05/31 10:54:07;;;;;;;0.10;0.10;;;21.00;99.90;;;;;;5066293;28;20029;-45
2023/05/31 10:56:32;;;;;;;0.10;0.10;;;21.80;99.90;;;;;;5069245;28;20086;-46
2023/05/31 10:58:58;;;;;;;0.10;0.10;;;21.70;96.50;;;;;;5067257;28;20027;-47
2023/05/31 11:01:28;;;;;;;0.10;0.10;;;22.20;95.00;;;;;;5069936;28;20029;-43
2023/05/31 11:03:57;;;;;;;0.20;0.20;;;22.70;95.60;;;;;;5067069;28;20145;-46
2023/05/31 11:06:28;;;;;;;0.10;0.10;;;23.10;96.80;;;;;;5068860;28;20032;-43
2023/05/31 11:08:59;;;;;;;0.15;0.15;;;23.90;93.80;;;;;;5068063;28;20029;-52
2023/05/31 11:11:28;;;;;;;0.00;0.00;;;24.60;94.90;;;;;;5068892;28;20023;-50
2023/05/31 11:14:06;;;;;;;0.10;0.10;;;24.10;89.50;;;;;;5069501;28;20041;-51
2023/05/31 11:16:33;;;;;;;0.10;0.10;;;24.10;90.90;;;;;;5069458;28;20436;-43
2023/05/31 11:19:06;;;;;;;0.00;0.00;;;23.90;92.10;;;;;;5068836;28;20029;-50
2023/05/31 11:21:51;;;;;;;0.00;0.00;;;24.30;93.20;;;;;;5069856;28;20120;-44
2023/05/31 11:24:37;;;;;;;0.00;0.00;;;24.00;90.00;;;;;;5061494;28;20044;-45
2023/05/31 11:27:05;;;;;;;0.00;0.00;;;24.20;86.60;;;;;;5067400;28;20063;-49
2023/05/31 11:29:48;;;;;;;0.10;0.10;;;24.10;90.40;;;;;;5073621;28;20054;-55
2023/05/31 11:32:15;;;;;;;0.10;0.10;;;23.80;90.40;;;;;;5070070;28;20533;-46
2023/05/31 11:34:53;;;;;;;0.10;0.10;;;22.90;88.30;;;;;;5073013;28;20459;-57
2023/05/31 11:37:23;;;;;;;0.03;0.03;;;22.70;91.10;;;;;;5081678;28;20028;-52
2023/05/31 11:39:49;;;;;;;0.10;0.10;;;22.80;92.10;;;;;;5093861;28;20030;-41
2023/05/31 11:42:15;;;;;;;0.10;0.10;;;23.00;93.60;;;;;;5089638;28;20012;-45
2023/05/31 11:44:45;;;;;;;0.10;0.10;;;22.90;90.90;;;;;;5068403;28;20056;-47
2023/05/31 11:47:18;;;;;;;0.10;0.10;;;23.10;90.90;;;;;;5066905;28;20044;-49
2023/05/31 11:49:44;;;;;;;0.10;0.10;;;23.80;91.80;;;;;;5077914;28;20024;-54
2023/05/31 11:52:15;;;;;;;0.10;0.10;;;24.40;90.60;;;;;;5065430;28;20031;-47
2023/05/31 11:54:44;;;;;;;0.10;0.10;;;25.00;91.80;;;;;;5072598;28;20025;-47
2023/05/31 11:57:10;;;;;;;0.03;0.03;;;24.70;83.80;;;;;;5080837;28;20033;-43
2023/05/31 11:59:37;;;;;;;0.00;0.00;;;24.30;84.90;;;;;;5072752;28;20025;-51
2023/05/31 12:02:05;;;;;;;0.10;0.10;;;24.10;85.70;;;;;;5073132;28;20418;-56
2023/05/31 12:04:36;;;;;;;0.00;0.00;;;24.50;87.30;;;;;;5070969;28;20024;-44
2023/05/31 12:07:07;;;;;;;0.10;0.10;;;24.40;86.70;;;;;;5065080;28;20044;-49
2023/05/31 12:09:33;;;;;;;0.10;0.10;;;24.50;86.90;;;;;;5065831;28;20051;-42
2023/05/31 12:12:00;;;;;;;0.00;0.00;;;24.60;87.30;;;;;;5064568;28;20083;-42
2023/05/31 12:14:26;;;;;;;0.00;0.00;;;24.30;86.20;;;;;;5068255;28;20064;-45
2023/05/31 12:16:53;;;;;;;0.10;0.10;;;24.10;85.80;;;;;;5061552;28;20067;-41
2023/05/31 12:19:19;;;;;;;0.08;0.08;;;23.60;86.80;;;;;;5072540;28;20029;-44
2023/05/31 12:21:45;;;;;;;0.00;0.00;;;23.40;88.20;;;;;;5067860;28;20356;-40
2023/05/31 12:24:15;;;;;;;0.00;0.00;;;23.50;87.80;;;;;;5060157;28;20392;-40
2023/05/31 12:26:43;;;;;;;0.10;0.10;;;23.40;90.10;;;;;;5070688;28;20031;-40
2023/05/31 12:29:09;;;;;;;0.35;0.10;;;23.20;90.50;;;;;;5071709;28;20035;-49
2023/05/31 12:31:37;;;;;;;0.10;0.10;;;22.80;87.10;;;;;;5070165;28;20119;-41
2023/05/31 12:34:07;;;;;;;0.00;0.00;;;22.60;90.30;;;;;;5068589;28;20079;-46
2023/05/31 12:36:38;;;;;;;0.00;0.00;;;22.20;89.70;;;;;;5071527;28;20052;-40
2023/05/31 12:39:13;;;;;;;0.17;0.17;;;21.70;90.80;;;;;;5080035;28;20024;-51
2023/05/31 12:41:43;;;;;;;0.10;0.10;;;22.10;92.90;;;;;;5071614;28;20064;-39
2023/05/31 12:44:08;;;;;;;0.10;0.10;;;22.10;91.90;;;;;;5067006;28;20119;-41
2023/05/31 12:46:41;;;;;;;0.00;0.00;;;22.40;93.00;;;;;;5084981;28;20567;-48
2023/05/31 12:49:21;;;;;;;0.10;0.10;;;22.50;91.70;;;;;;5075599;28;20054;-45
2023/05/31 12:52:07;;;;;;;0.10;0.10;;;22.50;93.00;;;;;;5068733;28;20483;-45